Flight Track Log - Related Links

Times and Time Zones

All times are in EST time to prevent confusion due to time zone crossing. See the ASA67 flight status page for this flight to view local times or setup timezone preferences in your user account.

Time Position Orientation Groundspeed Altitude Reporting Facility
EST Latitude Longitude Course Direction KTS MPH feet Rate Location/Type
Fri 06:07:05 PM 47.4636 -122.3078 358° North 131 151 1,300  Level Seattle Center
Fri 06:07:54 PM 47.5017 -122.3097 358° North 180 207 2,400 1,664 Climbing Seattle Center
Fri 06:09:04 PM 47.5714 -122.3114 359° North 225 259 4,600 2,427 Climbing Seattle Center
Fri 06:10:05 PM 47.6111 -122.4036 303° West 275 316 7,700 2,951 Climbing Seattle Center
Fri 06:11:06 PM 47.6183 -122.5181 275° West 281 323 10,600 2,331 Climbing Seattle Center
Fri 06:12:06 PM 47.6272 -122.6567 275° West 349 402 12,400 2,380 Climbing Seattle Center
Fri 06:13:07 PM 47.6378 -122.8061 276° West 364 419 15,400 3,000 Climbing Seattle Center
Fri 06:14:08 PM 47.6664 -122.9472 287° West 369 425 18,500 2,902 Climbing Seattle Center
Fri 06:15:09 PM 47.7436 -123.0619 315° West 383 441 21,300 2,557 Climbing Seattle Center
Fri 06:16:10 PM 47.8231 -123.1794 315° West 392 451 23,700 2,311 Climbing Seattle Center
Fri 06:17:11 PM 47.9044 -123.3025 315° West 404 465 26,000 2,066 Climbing Seattle Center
Fri 06:18:12 PM 47.9881 -123.4281 315° West 416 479 27,900 2,115 Climbing Seattle Center
Fri 06:19:13 PM 48.0708 -123.5528 315° West 424 488 30,300 2,508 Climbing Seattle Center
Fri 06:20:14 PM 48.1531 -123.6722 316° Northwest 419 482 33,000 2,337 Climbing Seattle Center
Fri 06:20:48 PM 48.2000 -123.7167 328° Northwest 400 460 34,000 638 Climbing Vancouver Center
Fri 06:21:48 PM 48.3000 -123.8000 331° Northwest 400 460 34,000  Level Vancouver Center
Fri 06:22:48 PM 48.4000 -123.8833 331° Northwest 400 460 34,000  Level Vancouver Center
Fri 06:23:48 PM 48.5000 -123.9500 336° Northwest 400 460 34,000  Level Vancouver Center
Fri 06:24:48 PM 48.6000 -124.0333 331° Northwest 400 460 34,000  Level Vancouver Center
Fri 06:25:48 PM 48.7000 -124.1000 336° Northwest 410 472 34,000  Level Vancouver Center
Fri 06:26:48 PM 48.8000 -124.2000 327° Northwest 410 472 34,000  Level Vancouver Center
Fri 06:27:48 PM 48.9000 -124.2833 331° Northwest 410 472 34,000  Level Vancouver Center
Fri 06:28:48 PM 49.0000 -124.3667 331° Northwest 410 472 34,000  Level Vancouver Center
Fri 06:29:48 PM 49.1000 -124.4333 336° Northwest 410 472 34,000  Level Vancouver Center
Fri 06:30:48 PM 49.2000 -124.5167 331° Northwest 410 472 34,000  Level Vancouver Center
Fri 06:31:48 PM 49.3000 -124.6000 331° Northwest 410 472 34,000  Level Vancouver Center
Fri 06:32:48 PM 49.4000 -124.7000 327° Northwest 410 472 34,000  Level Vancouver Center
Fri 06:33:48 PM 49.5000 -124.7833 332° Northwest 400 460 34,000  Level Vancouver Center
Fri 06:34:48 PM 49.6000 -124.8500 337° Northwest 400 460 34,000  Level Vancouver Center
Fri 06:35:48 PM 49.7000 -124.9333 332° Northwest 400 460 34,000  Level Vancouver Center
Fri 06:36:48 PM 49.8000 -125.0167 332° Northwest 400 460 34,000  Level Vancouver Center
Fri 06:37:48 PM 49.9000 -125.1167 327° Northwest 400 460 34,000  Level Vancouver Center
Fri 06:38:48 PM 49.9833 -125.2333 318° Northwest 400 460 34,000  Level Vancouver Center
Fri 06:39:48 PM 50.0833 -125.3333 327° Northwest 400 460 34,000  Level Vancouver Center
Fri 06:40:48 PM 50.1667 -125.4167 327° Northwest 410 472 34,000  Level Vancouver Center
Fri 06:41:48 PM 50.2667 -125.5167 327° Northwest 410 472 34,000  Level Vancouver Center
Fri 06:42:48 PM 50.3667 -125.6333 323° Northwest 400 460 34,000  Level Vancouver Center
Fri 06:43:48 PM 50.4333 -125.7333 316° Northwest 400 460 34,000  Level Vancouver Center
Fri 06:44:48 PM 50.5333 -125.8500 323° Northwest 400 460 34,000  Level Vancouver Center
Fri 06:45:48 PM 50.6167 -125.9333 328° Northwest 400 460 34,000  Level Vancouver Center
Fri 06:46:48 PM 50.7167 -126.0333 328° Northwest 400 460 34,000  Level Vancouver Center
Fri 06:47:48 PM 50.8000 -126.1500 319° Northwest 400 460 34,000  Level Vancouver Center
Fri 06:48:48 PM 50.9000 -126.2333 332° Northwest 400 460 34,000  Level Vancouver Center
Fri 06:49:48 PM 50.9833 -126.3500 319° Northwest 400 460 34,000  Level Vancouver Center
Fri 06:50:48 PM 51.0833 -126.4500 328° Northwest 400 460 34,000  Level Vancouver Center
Fri 06:51:48 PM 51.1667 -126.5333 328° Northwest 400 460 34,000  Level Vancouver Center
Fri 06:52:48 PM 51.2500 -126.6500 319° Northwest 400 460 34,000  Level Vancouver Center
Fri 06:53:48 PM 51.3333 -126.7667 319° Northwest 400 460 34,000  Level Vancouver Center
Fri 06:54:48 PM 51.4333 -126.8500 333° Northwest 390 449 34,000  Level Vancouver Center
Fri 06:55:48 PM 51.5167 -126.9667 319° Northwest 390 449 34,000  Level Vancouver Center
Fri 06:56:48 PM 51.6167 -127.0833 324° Northwest 390 449 34,000  Level Vancouver Center
Fri 06:57:48 PM 51.7000 -127.1667 328° Northwest 390 449 34,000  Level Vancouver Center
Fri 06:58:48 PM 51.7833 -127.2833 319° Northwest 390 449 34,000  Level Vancouver Center
Fri 06:59:48 PM 51.8667 -127.4000 319° Northwest 390 449 34,000 -650 Level Vancouver Center
Fri 07:00:48 PM 51.9500 -127.4833 328° Northwest 390 449 32,700 -1,000 Descending Vancouver Center
Fri 07:01:48 PM 52.0500 -127.6000 324° Northwest 390 449 32,000 -350 Descending Vancouver Center
Fri 07:02:48 PM 52.1333 -127.6833 328° Northwest 390 449 32,000  Level Vancouver Center
Fri 07:03:48 PM 52.2167 -127.8000 319° Northwest 390 449 32,000  Level Vancouver Center
Fri 07:04:48 PM 52.3000 -127.9167 319° Northwest 390 449 32,000  Level Vancouver Center
Fri 07:05:48 PM 52.3833 -128.0167 324° Northwest 390 449 32,000  Level Vancouver Center
Fri 07:06:48 PM 52.4833 -128.1333 325° Northwest 390 449 32,000  Level Vancouver Center
Fri 07:07:48 PM 52.5667 -128.2167 329° Northwest 390 449 32,000  Level Vancouver Center
Fri 07:08:48 PM 52.6667 -128.3333 325° Northwest 390 449 32,000  Level Vancouver Center
Fri 07:09:48 PM 52.7333 -128.4667 310° West 380 437 32,000  Level Vancouver Center
Fri 07:10:48 PM 52.8167 -128.5500 329° Northwest 380 437 32,000  Level Vancouver Center
Fri 07:11:48 PM 52.9167 -128.6667 325° Northwest 380 437 32,000  Level Vancouver Center
Fri 07:12:48 PM 53.0000 -128.7667 324° Northwest 380 437 32,000  Level Vancouver Center
Fri 07:13:48 PM 53.0667 -128.8833 314° West 380 437 32,000  Level Vancouver Center
Fri 07:14:48 PM 53.1667 -128.9833 329° Northwest 390 449 32,000  Level Vancouver Center
Fri 07:15:48 PM 53.2500 -129.1000 320° Northwest 380 437 32,000  Level Vancouver Center
Fri 07:16:48 PM 53.3333 -129.2000 324° Northwest 390 449 32,000  Level Vancouver Center
Fri 07:17:48 PM 53.4167 -129.3167 320° Northwest 390 449 32,000  Level Vancouver Center
Fri 07:18:48 PM 53.5000 -129.4333 320° Northwest 390 449 32,000  Level Vancouver Center
Fri 07:19:48 PM 53.5833 -129.5333 325° Northwest 380 437 32,000  Level Vancouver Center
Fri 07:20:48 PM 53.6667 -129.6667 317° Northwest 390 449 32,000  Level Vancouver Center
Fri 07:21:48 PM 53.7500 -129.7500 329° Northwest 390 449 32,000  Level Vancouver Center
Fri 07:22:48 PM 53.8333 -129.8833 317° Northwest 390 449 32,000  Level Vancouver Center
Fri 07:23:48 PM 53.9167 -130.0000 321° Northwest 390 449 32,000  Level Vancouver Center
Fri 07:24:48 PM 54.0000 -130.1000 325° Northwest 390 449 32,000  Level Vancouver Center
Fri 07:25:48 PM 54.0833 -130.2333 317° Northwest 390 449 32,000  Level Vancouver Center
Fri 07:26:48 PM 54.1667 -130.3333 325° Northwest 390 449 32,000  Level Vancouver Center
Fri 07:27:48 PM 54.2500 -130.4500 321° Northwest 390 449 32,000  Level Vancouver Center
Fri 07:28:48 PM 54.3500 -130.5833 322° Northwest 390 449 32,000 -750 Level Vancouver Center
Fri 07:29:48 PM 54.4167 -130.6833 319° Northwest 380 437 30,500 -2,050 Descending Vancouver Center
Fri 07:30:48 PM 54.5000 -130.8167 317° Northwest 380 437 27,900 -2,300 Descending Vancouver Center
Fri 07:31:48 PM 54.5833 -130.9167 325° Northwest 370 426 25,900 -2,050 Descending Vancouver Center
Fri 07:32:48 PM 54.6500 -131.0500 311° West 360 414 23,800 -2,200 Descending Vancouver Center
Fri 07:33:18 PM 54.7000 -131.0500 360° North 360 414 22,600 -2,200 Descending Anchorage Center
Fri 07:33:48 PM 54.7333 -131.1500 300° West 350 403 21,600 -2,000 Descending Vancouver Center
Fri 07:34:48 PM 54.8000 -131.2333 324° Northwest 350 403 19,600 -2,100 Descending Vancouver Center
Fri 07:35:48 PM 54.8667 -131.3500 315° West 340 391 17,400 -2,067 Descending Vancouver Center
Fri 07:36:18 PM 54.9167 -131.3667 349° North 330 380 16,500 -1,978 Descending Anchorage Center
Fri 07:37:19 PM 54.9833 -131.4667 319° Northwest 320 368 14,400 -1,934 Descending Anchorage Center
Fri 07:38:19 PM 55.0500 -131.5667 319° Northwest 310 357 12,600 -1,900 Descending Anchorage Center
Fri 07:39:19 PM 55.1167 -131.6500 324° Northwest 310 357 10,600 -1,289 Descending Anchorage Center
Fri 07:40:20 PM 55.1667 -131.7500 311° West 290 334 10,000 -1,190 Descending Anchorage Center
Fri 07:41:20 PM 55.2333 -131.8167 330° Northwest 270 311 8,200 -1,550 Descending Anchorage Center
Fri 07:42:20 PM 55.3000 -131.9000 325° Northwest 270 311 6,900 -1,240 Descending Anchorage Center
Fri 07:43:21 PM 55.3500 -131.9833 317° Northwest 260 299 5,700 -1,180 Descending Anchorage Center
Fri 07:45:00 PM 55.3534 -131.7595 88° East  Level Estimated
Fri 07:52:00 PM 55.3541 -131.7112 89° East  Level Estimated
Fri 07:53:00 PM 55.3541 -131.7112 North  Level Estimated
Fri 07:54:00 PM 55.3541 -131.7112 North  Level Estimated
Fri 07:55:00 PM 55.3541 -131.7112 North  Level Estimated
Fri 07:56:00 PM 55.3541 -131.7112 North  Level Estimated

Login

Don't have an account? Register now (free) for customized features, flight alerts, and more!